createdAt,value
2022-11-25T00:00:22.209Z,98.30
2022-11-25T00:02:49.039Z,98.30
2022-11-25T00:05:15.879Z,98.30
2022-11-25T00:07:42.606Z,98.30
2022-11-25T00:10:09.430Z,98.30
2022-11-25T00:12:36.218Z,98.30
2022-11-25T00:15:03.011Z,98.30
2022-11-25T00:17:29.692Z,98.30
2022-11-25T00:19:56.414Z,98.30
2022-11-25T00:22:23.144Z,98.30
2022-11-25T00:24:49.779Z,98.30
2022-11-25T00:27:16.456Z,98.30
2022-11-25T00:29:43.137Z,98.30
2022-11-25T00:32:09.887Z,98.30
2022-11-25T00:34:36.791Z,98.30
2022-11-25T00:37:03.634Z,98.30
2022-11-25T00:39:30.330Z,98.30
2022-11-25T00:42:15.587Z,98.30
2022-11-25T00:44:42.649Z,98.30
2022-11-25T00:47:18.540Z,98.30
2022-11-25T00:49:51.104Z,98.30
2022-11-25T00:52:23.521Z,98.30
2022-11-25T00:54:51.451Z,98.30
2022-11-25T00:57:19.829Z,98.30
2022-11-25T00:59:47.376Z,98.30
2022-11-25T01:02:15.990Z,98.30
2022-11-25T01:04:44.188Z,98.30
2022-11-25T01:07:11.308Z,98.30
2022-11-25T01:09:38.239Z,98.30
2022-11-25T01:12:05.755Z,98.30
2022-11-25T01:14:33.467Z,98.30
2022-11-25T01:17:00.467Z,98.30
2022-11-25T01:19:27.687Z,98.30
2022-11-25T01:21:54.336Z,98.30
2022-11-25T01:24:21.022Z,98.30
2022-11-25T01:26:47.861Z,98.30
2022-11-25T01:29:17.603Z,98.30
2022-11-25T01:31:45.401Z,98.30
2022-11-25T01:34:26.598Z,98.30
2022-11-25T01:36:56.920Z,98.30
2022-11-25T01:39:31.660Z,98.30
2022-11-25T01:41:59.132Z,98.30
2022-11-25T01:44:31.145Z,98.30
2022-11-25T01:47:03.238Z,98.30
2022-11-25T01:49:50.118Z,98.30
2022-11-25T01:52:32.783Z,98.30
2022-11-25T01:55:14.721Z,98.30
2022-11-25T01:58:17.805Z,98.30
2022-11-25T02:00:51.183Z,98.30
2022-11-25T02:03:29.439Z,98.30
2022-11-25T02:06:12.783Z,98.30
2022-11-25T02:08:41.070Z,98.30
2022-11-25T02:11:07.948Z,98.30
2022-11-25T02:13:35.869Z,98.30
2022-11-25T02:16:02.658Z,98.30
2022-11-25T02:18:30.026Z,98.30
2022-11-25T02:20:56.944Z,98.30
2022-11-25T02:23:43.562Z,98.30
2022-11-25T02:26:10.886Z,98.30
2022-11-25T02:28:38.795Z,98.30
2022-11-25T02:31:08.300Z,98.30
2022-11-25T02:33:36.538Z,98.30
2022-11-25T02:36:07.452Z,98.30
2022-11-25T02:38:54.851Z,98.30
2022-11-25T02:41:29.805Z,98.30
2022-11-25T02:44:01.362Z,98.30
2022-11-25T02:46:29.930Z,98.30
2022-11-25T02:49:08.818Z,98.30
2022-11-25T02:51:37.774Z,98.30
2022-11-25T02:54:04.958Z,98.30
2022-11-25T02:56:34.256Z,98.30
2022-11-25T02:59:01.616Z,98.30
2022-11-25T03:01:31.279Z,98.30
2022-11-25T03:03:59.223Z,98.30
2022-11-25T03:06:28.446Z,98.30
2022-11-25T03:08:55.360Z,98.30
2022-11-25T03:11:42.360Z,98.30
2022-11-25T03:14:09.561Z,98.30
2022-11-25T03:16:36.376Z,98.30
2022-11-25T03:19:04.626Z,98.30
2022-11-25T03:21:31.703Z,98.30
2022-11-25T03:23:58.439Z,98.30
2022-11-25T03:26:26.139Z,98.30
2022-11-25T03:28:53.156Z,98.30
2022-11-25T03:31:20.072Z,98.30
2022-11-25T03:33:47.047Z,98.30
2022-11-25T03:36:13.838Z,98.30
2022-11-25T03:38:40.777Z,98.30
2022-11-25T03:41:07.594Z,98.30
2022-11-25T03:43:35.656Z,98.30
2022-11-25T03:46:02.875Z,98.20
2022-11-25T03:48:29.764Z,98.20
2022-11-25T03:50:56.653Z,98.10
2022-11-25T03:53:25.497Z,98.20
2022-11-25T03:55:52.771Z,98.00
2022-11-25T03:58:22.230Z,98.10
2022-11-25T04:00:50.850Z,98.10
2022-11-25T04:03:17.697Z,98.00
2022-11-25T04:05:44.666Z,98.30
2022-11-25T04:08:13.810Z,98.30
2022-11-25T04:10:41.275Z,98.30
2022-11-25T04:13:09.920Z,98.30
2022-11-25T04:15:48.001Z,97.90
2022-11-25T04:18:18.301Z,98.00
2022-11-25T04:20:45.898Z,97.50
2022-11-25T04:23:14.175Z,97.80
2022-11-25T04:25:52.111Z,98.10
2022-11-25T04:28:24.820Z,98.30
2022-11-25T04:30:51.688Z,98.30
2022-11-25T04:33:18.736Z,98.30
2022-11-25T04:35:48.016Z,98.30
2022-11-25T04:38:15.053Z,98.30
2022-11-25T04:40:42.297Z,98.30
2022-11-25T04:43:21.800Z,98.30
2022-11-25T04:46:13.433Z,98.30
2022-11-25T04:48:41.977Z,98.30
2022-11-25T04:51:09.443Z,98.30
2022-11-25T04:53:36.330Z,98.30
2022-11-25T04:56:03.706Z,98.30
2022-11-25T04:58:54.613Z,98.30
2022-11-25T05:01:21.660Z,98.30
2022-11-25T05:03:57.195Z,98.00
2022-11-25T05:06:25.680Z,97.90
2022-11-25T05:08:53.019Z,98.30
2022-11-25T05:11:21.549Z,98.30
2022-11-25T05:13:48.518Z,98.30
2022-11-25T05:16:15.399Z,98.30
2022-11-25T05:18:42.230Z,98.30
2022-11-25T05:29:38.746Z,98.20
2022-11-25T05:32:07.250Z,98.10
2022-11-25T05:34:34.445Z,98.30
2022-11-25T05:37:01.707Z,98.30
2022-11-25T05:39:29.522Z,98.30
2022-11-25T05:42:22.350Z,98.30
2022-11-25T05:44:49.563Z,98.30
2022-11-25T05:47:16.344Z,98.30
2022-11-25T05:49:43.116Z,98.30
2022-11-25T05:52:09.805Z,98.30
2022-11-25T05:54:45.161Z,98.30
2022-11-25T05:57:11.919Z,98.30
2022-11-25T06:00:01.775Z,98.30
2022-11-25T06:02:52.238Z,98.30
2022-11-25T06:05:20.204Z,98.30
2022-11-25T06:07:47.388Z,98.30
2022-11-25T06:10:14.892Z,98.30
2022-11-25T06:12:41.775Z,98.30
2022-11-25T06:15:09.391Z,98.30
2022-11-25T06:17:37.964Z,98.30
2022-11-25T06:20:10.777Z,98.30
2022-11-25T06:22:37.616Z,98.30
2022-11-25T06:25:05.024Z,98.30
2022-11-25T06:28:04.483Z,98.30
2022-11-25T06:30:22.970Z,98.30
2022-11-25T06:33:02.824Z,98.30
2022-11-25T06:35:29.564Z,98.30
2022-11-25T06:37:59.525Z,98.30
2022-11-25T06:40:26.244Z,98.30
2022-11-25T06:42:53.016Z,98.30
2022-11-25T06:45:19.764Z,98.30
2022-11-25T06:47:46.448Z,98.30
2022-11-25T06:50:13.243Z,98.30
2022-11-25T06:52:39.909Z,98.30
2022-11-25T06:55:06.956Z,98.30
2022-11-25T06:57:33.673Z,98.30
2022-11-25T07:00:00.360Z,98.30
2022-11-25T07:02:27.055Z,97.80
2022-11-25T07:04:53.804Z,97.80
2022-11-25T07:07:20.622Z,98.20
2022-11-25T07:09:47.611Z,98.10
2022-11-25T07:12:14.299Z,98.10
2022-11-25T07:14:41.056Z,97.90
2022-11-25T07:17:11.997Z,98.00
2022-11-25T07:19:39.151Z,98.30
2022-11-25T07:22:05.796Z,98.30
2022-11-25T07:24:33.837Z,98.30
2022-11-25T07:27:00.768Z,98.30
2022-11-25T07:29:52.009Z,98.30
2022-11-25T07:32:14.545Z,98.30
2022-11-25T07:34:41.397Z,98.30
2022-11-25T07:37:08.109Z,98.30
2022-11-25T07:39:35.288Z,98.20
2022-11-25T07:42:02.342Z,98.10
2022-11-25T07:44:29.050Z,97.80
2022-11-25T07:47:04.176Z,97.60
2022-11-25T07:49:30.827Z,97.60
2022-11-25T07:52:00.498Z,98.10
2022-11-25T07:54:27.282Z,97.30
2022-11-25T07:56:54.147Z,96.80
2022-11-25T07:59:22.570Z,97.40
2022-11-25T08:01:51.139Z,97.90
2022-11-25T08:04:20.424Z,97.80
2022-11-25T08:06:49.494Z,97.60
2022-11-25T08:09:19.341Z,97.30
2022-11-25T08:11:47.094Z,97.60
2022-11-25T08:14:14.556Z,98.10
2022-11-25T08:16:41.818Z,97.80
2022-11-25T08:19:13.506Z,98.30
2022-11-25T08:21:41.274Z,98.10
2022-11-25T08:24:08.128Z,97.80
2022-11-25T08:26:37.427Z,98.30
2022-11-25T08:29:05.944Z,98.30
2022-11-25T08:31:35.519Z,98.30
2022-11-25T08:34:03.135Z,98.20
2022-11-25T08:36:31.688Z,98.30
2022-11-25T08:39:00.378Z,97.90
2022-11-25T08:41:29.573Z,97.60
2022-11-25T08:43:57.990Z,97.80
2022-11-25T08:46:28.963Z,97.80
2022-11-25T08:48:56.141Z,97.60
2022-11-25T08:51:26.757Z,97.30
2022-11-25T08:53:53.800Z,97.30
2022-11-25T08:56:25.980Z,97.70
2022-11-25T08:58:54.253Z,97.90
2022-11-25T09:01:22.862Z,98.00
2022-11-25T09:03:52.105Z,97.80
2022-11-25T09:06:19.322Z,98.00
2022-11-25T09:08:47.091Z,98.30
2022-11-25T09:11:14.586Z,98.30
2022-11-25T09:13:41.377Z,97.80
2022-11-25T09:16:09.424Z,98.10
2022-11-25T09:18:37.163Z,98.10
2022-11-25T09:21:09.964Z,98.30
2022-11-25T09:23:38.519Z,98.00
2022-11-25T09:26:06.790Z,97.80
2022-11-25T09:28:34.661Z,98.20
2022-11-25T09:31:08.249Z,98.20
2022-11-25T09:33:35.040Z,98.30
2022-11-25T09:36:02.998Z,98.30
2022-11-25T09:38:29.692Z,98.30
2022-11-25T09:41:49.242Z,98.30
2022-11-25T09:45:16.707Z,98.30
2022-11-25T09:48:09.267Z,98.30
2022-11-25T09:50:59.914Z,98.30
2022-11-25T09:53:38.556Z,98.10
2022-11-25T09:56:34.680Z,98.30
2022-11-25T09:59:18.057Z,98.30
2022-11-25T10:02:01.295Z,98.30
2022-11-25T10:04:42.233Z,98.30
2022-11-25T10:07:18.229Z,97.90
2022-11-25T10:09:44.993Z,98.00
2022-11-25T10:12:27.060Z,98.30
2022-11-25T10:15:00.257Z,98.30
2022-11-25T10:17:50.905Z,98.30
2022-11-25T10:20:29.904Z,98.30
2022-11-25T10:23:01.905Z,98.20
2022-11-25T10:25:33.073Z,98.30
2022-11-25T10:28:10.351Z,98.30
2022-11-25T10:30:46.190Z,98.30
2022-11-25T10:33:24.717Z,98.30
2022-11-25T10:35:53.450Z,98.30
2022-11-25T10:38:29.246Z,98.30
2022-11-25T10:40:56.364Z,98.30
2022-11-25T10:43:27.211Z,98.30
2022-11-25T10:46:02.498Z,98.30
2022-11-25T10:49:26.444Z,98.30
2022-11-25T10:51:54.587Z,98.30
2022-11-25T10:54:28.138Z,98.30
2022-11-25T10:57:03.032Z,98.30
2022-11-25T10:59:38.315Z,98.30
2022-11-25T11:02:37.583Z,98.30
2022-11-25T11:05:10.165Z,98.30
2022-11-25T11:07:41.812Z,98.30
2022-11-25T11:10:14.768Z,98.30
2022-11-25T11:12:54.273Z,98.30
2022-11-25T11:15:23.838Z,98.30
2022-11-25T11:17:50.684Z,98.30
2022-11-25T11:20:25.642Z,98.30
2022-11-25T11:23:02.983Z,98.30
2022-11-25T11:25:37.457Z,98.30
2022-11-25T11:28:24.109Z,98.30
2022-11-25T11:30:58.540Z,98.30
2022-11-25T11:33:35.134Z,98.30
2022-11-25T11:36:35.533Z,98.30
2022-11-25T11:39:21.898Z,98.30
2022-11-25T11:42:04.839Z,98.30
2022-11-25T11:45:24.481Z,98.30
2022-11-25T11:48:38.669Z,98.30
2022-11-25T11:51:27.696Z,98.30
2022-11-25T11:54:14.842Z,98.30
2022-11-25T11:56:55.076Z,98.30
2022-11-25T11:59:36.668Z,98.30
2022-11-25T12:02:30.694Z,98.30
2022-11-25T12:05:11.950Z,98.30
2022-11-25T12:07:41.921Z,98.30
2022-11-25T12:10:38.066Z,98.30
2022-11-25T12:13:33.571Z,98.30
2022-11-25T12:16:08.006Z,98.30
2022-11-25T12:18:53.264Z,98.30
2022-11-25T12:21:58.540Z,98.30
2022-11-25T12:24:43.099Z,98.30
2022-11-25T12:27:36.920Z,98.30
2022-11-25T12:30:21.144Z,98.30
2022-11-25T12:33:06.225Z,98.30
2022-11-25T12:35:46.806Z,98.30
2022-11-25T12:38:27.242Z,98.30
2022-11-25T12:41:07.599Z,98.30
2022-11-25T12:43:50.251Z,98.30
2022-11-25T12:46:31.763Z,98.30
2022-11-25T12:48:59.305Z,98.30
2022-11-25T12:51:34.764Z,98.30
2022-11-25T12:54:17.209Z,98.30
2022-11-25T12:57:04.112Z,98.30
2022-11-25T12:59:47.845Z,98.30
2022-11-25T13:02:44.007Z,98.30
2022-11-25T13:05:40.212Z,98.30
2022-11-25T13:08:29.262Z,98.30
2022-11-25T13:11:15.708Z,98.30
2022-11-25T13:14:04.880Z,98.30
2022-11-25T13:16:35.410Z,98.30
2022-11-25T13:19:09.533Z,98.30
2022-11-25T13:21:36.825Z,98.30
2022-11-25T13:24:03.972Z,98.30
2022-11-25T13:26:32.337Z,98.30
2022-11-25T13:29:00.781Z,98.30
2022-11-25T13:31:31.960Z,98.30
2022-11-25T13:34:23.104Z,98.30
2022-11-25T13:36:55.087Z,98.30
2022-11-25T13:39:30.519Z,98.30
2022-11-25T13:42:11.085Z,98.30
2022-11-25T13:44:49.412Z,98.30
2022-11-25T13:47:37.716Z,98.30
2022-11-25T13:50:19.002Z,98.30
2022-11-25T13:53:00.883Z,98.30
2022-11-25T13:55:32.951Z,98.30
2022-11-25T13:58:23.668Z,98.30
2022-11-25T14:01:09.040Z,98.30
2022-11-25T14:03:45.870Z,98.30
2022-11-25T14:06:51.047Z,98.30
2022-11-25T14:09:38.601Z,98.30
2022-11-25T14:12:22.688Z,98.30
2022-11-25T14:15:23.419Z,98.30
2022-11-25T14:18:12.777Z,98.30
2022-11-25T14:20:55.027Z,98.30
2022-11-25T14:23:24.744Z,98.30
2022-11-25T14:25:54.537Z,98.30
2022-11-25T14:28:44.095Z,98.30
2022-11-25T14:31:22.875Z,98.30
2022-11-25T14:33:58.007Z,98.30
2022-11-25T14:36:34.825Z,98.30
2022-11-25T14:39:08.866Z,98.30
2022-11-25T14:41:44.035Z,98.30
2022-11-25T14:44:19.377Z,98.30
2022-11-25T14:46:54.905Z,98.30
2022-11-25T14:49:46.612Z,98.30
2022-11-25T14:52:11.025Z,98.30
2022-11-25T14:54:43.502Z,98.30
2022-11-25T14:57:10.739Z,98.30
2022-11-25T14:59:43.614Z,98.30
2022-11-25T15:02:55.101Z,98.30
2022-11-25T15:05:26.878Z,98.30
2022-11-25T15:08:17.980Z,98.30
2022-11-25T15:10:50.276Z,98.30
2022-11-25T15:13:34.164Z,98.30
2022-11-25T15:16:06.783Z,98.30
2022-11-25T15:18:35.535Z,98.30
2022-11-25T15:21:02.730Z,98.30
2022-11-25T15:23:37.032Z,98.30
2022-11-25T15:26:04.942Z,98.30
2022-11-25T15:28:39.046Z,98.30
2022-11-25T15:31:12.432Z,98.30
2022-11-25T15:33:40.440Z,98.30
2022-11-25T15:36:07.324Z,98.30
2022-11-25T15:38:47.113Z,98.30
2022-11-25T15:41:20.347Z,98.30
2022-11-25T15:43:55.104Z,98.30
2022-11-25T15:46:23.296Z,98.30
2022-11-25T15:48:52.333Z,98.30
2022-11-25T15:51:49.805Z,98.30
2022-11-25T15:54:21.661Z,98.30
2022-11-25T15:56:51.435Z,98.30
2022-11-25T15:59:40.204Z,98.30
2022-11-25T16:02:32.992Z,98.30
2022-11-25T16:05:15.049Z,98.30
2022-11-25T16:07:54.434Z,98.30
2022-11-25T16:10:34.767Z,98.30
2022-11-25T16:13:23.275Z,98.30
2022-11-25T16:16:09.070Z,98.30
2022-11-25T16:18:47.153Z,98.30
2022-11-25T16:21:17.742Z,98.30
2022-11-25T16:23:50.284Z,98.30
2022-11-25T16:26:18.888Z,98.30
2022-11-25T16:28:57.385Z,98.30
2022-11-25T16:31:25.024Z,98.30
2022-11-25T16:33:59.200Z,98.30
2022-11-25T16:36:25.847Z,98.30
2022-11-25T16:38:54.255Z,98.30
2022-11-25T16:41:25.094Z,98.30
2022-11-25T16:43:52.159Z,98.30
2022-11-25T16:46:19.922Z,98.30
2022-11-25T16:48:47.758Z,98.30
2022-11-25T16:51:19.817Z,98.30
2022-11-25T16:53:47.324Z,98.30
2022-11-25T16:56:36.148Z,98.30
2022-11-25T16:59:03.595Z,98.30
2022-11-25T17:01:31.462Z,98.30
2022-11-25T17:03:58.148Z,98.30
2022-11-25T17:06:28.464Z,98.30
2022-11-25T17:08:55.151Z,98.30
2022-11-25T17:11:29.632Z,98.30
2022-11-25T17:13:59.068Z,98.30
2022-11-25T17:16:28.000Z,98.30
2022-11-25T17:18:57.983Z,98.30
2022-11-25T17:21:26.952Z,98.30
2022-11-25T17:23:58.055Z,98.30
2022-11-25T17:26:40.052Z,98.30
2022-11-25T17:29:16.556Z,98.30
2022-11-25T17:31:44.152Z,98.30
2022-11-25T17:34:16.349Z,98.30
2022-11-25T17:36:44.471Z,98.30
2022-11-25T17:39:12.711Z,98.30
2022-11-25T17:41:52.203Z,98.30
2022-11-25T17:44:27.667Z,98.30
2022-11-25T17:46:56.776Z,98.30
2022-11-25T17:49:24.031Z,98.30
2022-11-25T17:51:50.973Z,98.30
2022-11-25T17:54:18.105Z,98.30
2022-11-25T17:56:51.772Z,98.30
2022-11-25T17:59:33.470Z,98.30
2022-11-25T18:02:00.256Z,98.30
2022-11-25T18:04:30.871Z,98.30
2022-11-25T18:06:57.547Z,98.30
2022-11-25T18:09:24.271Z,98.30
2022-11-25T18:11:53.860Z,98.30
2022-11-25T18:14:28.317Z,98.30
2022-11-25T18:16:56.120Z,98.30
2022-11-25T18:19:30.538Z,98.30
2022-11-25T18:22:01.012Z,98.30
2022-11-25T18:24:27.676Z,98.30
2022-11-25T18:26:54.404Z,98.30
2022-11-25T18:29:26.018Z,98.30
2022-11-25T18:31:53.628Z,98.30
2022-11-25T18:34:20.292Z,98.30
2022-11-25T18:36:46.972Z,98.30
2022-11-25T18:39:14.002Z,98.30
2022-11-25T18:41:41.577Z,98.30
2022-11-25T18:44:26.132Z,98.30
2022-11-25T18:46:53.917Z,98.30
2022-11-25T18:49:21.407Z,98.30
2022-11-25T18:51:48.140Z,98.30
2022-11-25T18:54:15.054Z,98.30
2022-11-25T18:56:41.945Z,98.30
2022-11-25T18:59:14.671Z,98.30
2022-11-25T19:01:45.384Z,98.30
2022-11-25T19:04:16.645Z,98.30
2022-11-25T19:06:44.159Z,98.30
2022-11-25T19:09:11.137Z,98.30
2022-11-25T19:11:47.230Z,98.30
2022-11-25T19:14:27.430Z,98.30
2022-11-25T19:16:54.633Z,98.30
2022-11-25T19:19:21.403Z,98.30
2022-11-25T19:21:48.090Z,98.30
2022-11-25T19:24:18.638Z,98.30
2022-11-25T19:26:48.121Z,98.30
2022-11-25T19:29:41.767Z,98.30
2022-11-25T19:32:22.749Z,98.30
2022-11-25T19:34:59.960Z,98.30
2022-11-25T19:37:29.968Z,98.30
2022-11-25T19:39:57.088Z,98.30
2022-11-25T19:42:28.242Z,98.30
2022-11-25T19:44:54.989Z,98.30
2022-11-25T19:47:24.629Z,98.30
2022-11-25T19:49:55.792Z,98.30
2022-11-25T19:52:30.601Z,98.30
2022-11-25T19:54:57.252Z,98.30
2022-11-25T19:57:25.092Z,98.30
2022-11-25T19:59:51.774Z,98.30
2022-11-25T20:02:24.348Z,98.30
2022-11-25T20:04:54.184Z,98.30
2022-11-25T20:07:22.048Z,98.30
2022-11-25T20:09:51.375Z,98.30
2022-11-25T20:12:25.626Z,98.30
2022-11-25T20:14:52.775Z,98.30
2022-11-25T20:17:34.476Z,98.30
2022-11-25T20:20:19.729Z,98.30
2022-11-25T20:23:01.769Z,98.30
2022-11-25T20:25:29.092Z,98.30
2022-11-25T20:27:56.744Z,98.30
2022-11-25T20:30:25.859Z,98.30
2022-11-25T20:32:52.600Z,98.30
2022-11-25T20:35:20.869Z,98.30
2022-11-25T20:37:51.513Z,98.30
2022-11-25T20:40:22.171Z,98.30
2022-11-25T20:42:50.044Z,98.30
2022-11-25T20:45:19.892Z,98.30
2022-11-25T20:47:49.243Z,98.30
2022-11-25T20:50:16.587Z,98.30
2022-11-25T20:52:43.354Z,98.30
2022-11-25T20:55:23.418Z,98.30
2022-11-25T20:57:51.917Z,98.30
2022-11-25T21:00:24.888Z,98.30
2022-11-25T21:02:53.112Z,98.30
2022-11-25T21:05:20.341Z,98.30
2022-11-25T21:07:49.588Z,98.30
2022-11-25T21:10:25.791Z,98.30
2022-11-25T21:12:53.235Z,98.30
2022-11-25T21:15:22.873Z,98.30
2022-11-25T21:17:50.842Z,98.30
2022-11-25T21:20:19.061Z,98.30
2022-11-25T21:22:52.188Z,98.30
2022-11-25T21:25:20.910Z,98.30
2022-11-25T21:27:48.219Z,98.30
2022-11-25T21:30:20.707Z,98.30
2022-11-25T21:32:47.746Z,98.30
2022-11-25T21:35:15.412Z,98.30
2022-11-25T21:37:43.890Z,98.30
2022-11-25T21:40:30.028Z,98.30
2022-11-25T21:42:56.699Z,98.30
2022-11-25T21:45:24.154Z,98.30
2022-11-25T21:47:50.864Z,98.30
2022-11-25T21:50:19.406Z,98.30
2022-11-25T21:52:46.157Z,98.30
2022-11-25T21:55:14.993Z,98.30
2022-11-25T21:57:42.297Z,98.30
2022-11-25T22:00:21.870Z,98.30
2022-11-25T22:02:49.099Z,98.30
2022-11-25T22:05:18.061Z,98.30
2022-11-25T22:07:44.958Z,98.30
2022-11-25T22:10:13.400Z,98.30
2022-11-25T22:12:43.019Z,98.30
2022-11-25T22:15:18.098Z,98.30
2022-11-25T22:17:45.455Z,98.30
2022-11-25T22:20:39.003Z,98.30
2022-11-25T22:23:19.235Z,98.30
2022-11-25T22:25:47.957Z,98.30
2022-11-25T22:28:17.872Z,98.30
2022-11-25T22:30:49.516Z,98.30
2022-11-25T22:33:17.102Z,98.30
2022-11-25T22:35:43.956Z,98.30
2022-11-25T22:38:15.893Z,98.30
2022-11-25T22:40:44.489Z,98.30
2022-11-25T22:43:17.474Z,98.30
2022-11-25T22:45:45.108Z,98.30
2022-11-25T22:48:16.945Z,98.30
2022-11-25T22:50:45.617Z,98.30
2022-11-25T22:53:17.926Z,98.30
2022-11-25T22:55:45.523Z,98.30
2022-11-25T22:58:14.434Z,98.30
2022-11-25T23:00:45.181Z,98.30
2022-11-25T23:03:23.571Z,98.30
2022-11-25T23:05:51.910Z,98.30
2022-11-25T23:08:24.727Z,98.30
2022-11-25T23:10:52.914Z,98.30
2022-11-25T23:13:22.922Z,98.30
2022-11-25T23:15:55.183Z,98.30
2022-11-25T23:18:34.129Z,98.30
2022-11-25T23:21:16.846Z,98.30
2022-11-25T23:23:43.663Z,98.30
2022-11-25T23:26:14.960Z,98.30
2022-11-25T23:28:41.879Z,98.30
2022-11-25T23:31:12.620Z,98.30
2022-11-25T23:33:48.736Z,98.30
2022-11-25T23:36:17.702Z,98.30
2022-11-25T23:38:51.681Z,98.30
2022-11-25T23:41:21.647Z,98.30
2022-11-25T23:43:48.838Z,98.30
2022-11-25T23:46:17.467Z,98.30
2022-11-25T23:48:50.204Z,98.30
2022-11-25T23:51:16.987Z,98.30
2022-11-25T23:53:43.925Z,98.30
2022-11-25T23:56:10.572Z,98.30
2022-11-25T23:58:37.478Z,98.30
